メインページ
METAR-TAF:

METAR-TAF

空港 :

クウェート, クウェート

クウェート国際空港

緯度: 29-13N, 経度: 047-59E, 海抜: 55m

現時点の気象観測

当レポートは56分前の05:00(UTC)に作成
の風 17kt
気温 38°C
湿度 19%
気圧 1001 hPa
視程10km以上
1,500メートル以下は雲なし、積乱雲なし

METAR: OKBK 200500Z 35017KT CAVOK 38/10 Q1001 NOSIG

時間: 08:56 (05:56 UTC)

予報

当レポートは1時間11分前の04:45(UTC)に作成
予報は20日の 06時(UTC)から 21日の 12時(UTC)まで有効
北/北西の風 15kt、最大25ktの突風を伴う
視程: 7000m
晴天
20日の 06時(UTC)から 20日の 15時(UTC)まで一時的に
視程: 4000m
風塵

TAF: OKBK 200445Z 2006/2112 34015G25KT 7000 SKC TEMPO 2006/2015 4000 BLDU

4,000以上の空港の気象観測と天気予報(METAR報とTAF報)

利用可能な観測所は地図上に黄色い丸と赤い丸で示す。

丸の上にカーソルを重ねると観測所名を参照できる。

次にクリックすると気象観測と天気予報を参照できる。

マップの切り替え:黒色「×」印の緑ボタンをクリックして拡大、「-」印の緑ボタンをクリックして縮小、緑色の三角印をクリックして隣りの地図に切り替え


METAR-TAF: